This is the latest recevied weather packets stored in our database for station/object VK5ARG-5. If no packets are shown the sender has not sent any weather packets the latest 10 day(s).
| Time | Temp. | Humidity | Pressure | Rain* | Wind** | Luminosity | Snow |
|---|---|---|---|---|---|---|---|
| 1777661124 | 20.56° C | 42% | - | 0 mm | - | - | - |
| 1777658121 | 20.56° C | 42% | - | 0 mm | - | - | - |
| 1777655724 | 21.11° C | 41% | - | 0 mm | - | - | - |
| 1777649127 | 20.56° C | 41% | - | 0 mm | - | - | - |
| 1777647324 | 21.11° C | 40% | - | 0 mm | - | - | - |
| 1777645522 | 21.11° C | 40% | - | 0 mm | - | - | - |
| 1777644343 | 21.11° C | 39% | - | 0 mm | - | - | - |
| 1777640123 | 21.67° C | 37% | - | 0 mm | - | - | - |
| 1777637745 | 21.67° C | 38% | - | 0 mm | - | - | - |
| 1777632941 | 21.67° C | 40% | - | 0 mm | - | - | - |
| 1777629928 | 21.67° C | 41% | - | 0 mm | - | - | - |
| 1777628721 | 21.67° C | 40% | - | 0 mm | - | - | - |
| 1777626948 | 22.78° C | 38% | - | 0 mm | - | - | - |
| 1777626324 | 22.78° C | 38% | - | 0 mm | - | - | - |
| 1777622728 | 24.44° C | 35% | - | 0 mm | - | - | - |
| 1777612547 | 26.11° C | 30% | - | 0 mm | - | - | - |
| 1777611922 | 26.67° C | 30% | - | 0 mm | - | - | - |
| 1777610724 | 26.67° C | 30% | - | 0 mm | - | - | - |
| 1777609545 | 26.67° C | 30% | - | 0 mm | - | - | - |
| 1777605928 | 26.11° C | 31% | - | 0 mm | - | - | - |
| 1777602926 | 25.56° C | 32% | - | 0 mm | - | - | - |
| 1777592724 | 22.22° C | 37% | - | 0 mm | - | - | - |
| 1777583125 | 18.89° C | 42% | - | 0 mm | - | - | - |
| 1777578925 | 18.89° C | 43% | - | 0 mm | - | - | - |
| 1777576528 | 18.89° C | 43% | - | 0 mm | - | - | - |
* Rain latest hour (hover to see other rain measurements)
** Current wind speed in m/s (hover to see current wind gust speed)